sensor_id;sensor_type;location;lat;lon;timestamp;P1;durP1;ratioP1;P2;durP2;ratioP2
21503;SDS011;10913;51.992;9.228;2024-02-21T00:00:56;26.95;;;12.07;;
21503;SDS011;10913;51.992;9.228;2024-02-21T00:03:21;25.65;;;12.25;;
21503;SDS011;10913;51.992;9.228;2024-02-21T00:05:47;23.80;;;11.90;;
21503;SDS011;10913;51.992;9.228;2024-02-21T00:08:16;23.85;;;10.95;;
21503;SDS011;10913;51.992;9.228;2024-02-21T00:10:41;19.40;;;11.45;;
21503;SDS011;10913;51.992;9.228;2024-02-21T00:13:06;21.65;;;11.98;;
21503;SDS011;10913;51.992;9.228;2024-02-21T00:15:35;23.45;;;11.60;;
21503;SDS011;10913;51.992;9.228;2024-02-21T00:18:08;25.73;;;11.85;;
21503;SDS011;10913;51.992;9.228;2024-02-21T00:20:35;30.17;;;12.10;;
21503;SDS011;10913;51.992;9.228;2024-02-21T00:23:08;27.25;;;11.60;;
21503;SDS011;10913;51.992;9.228;2024-02-21T00:25:33;25.58;;;10.93;;
21503;SDS011;10913;51.992;9.228;2024-02-21T00:28:02;20.85;;;10.75;;
21503;SDS011;10913;51.992;9.228;2024-02-21T00:30:30;22.33;;;12.45;;
21503;SDS011;10913;51.992;9.228;2024-02-21T00:32:56;22.45;;;12.15;;
21503;SDS011;10913;51.992;9.228;2024-02-21T00:35:24;26.20;;;11.90;;
21503;SDS011;10913;51.992;9.228;2024-02-21T00:37:50;21.95;;;12.40;;
21503;SDS011;10913;51.992;9.228;2024-02-21T00:40:18;21.30;;;12.00;;
21503;SDS011;10913;51.992;9.228;2024-02-21T00:42:46;25.23;;;12.93;;
21503;SDS011;10913;51.992;9.228;2024-02-21T00:45:14;22.52;;;11.27;;
21503;SDS011;10913;51.992;9.228;2024-02-21T00:47:47;23.95;;;12.70;;
21503;SDS011;10913;51.992;9.228;2024-02-21T00:50:24;23.27;;;12.57;;
21503;SDS011;10913;51.992;9.228;2024-02-21T00:52:49;28.42;;;13.00;;
21503;SDS011;10913;51.992;9.228;2024-02-21T00:55:17;27.52;;;13.68;;
21503;SDS011;10913;51.992;9.228;2024-02-21T00:57:43;26.70;;;13.05;;
21503;SDS011;10913;51.992;9.228;2024-02-21T01:00:17;28.00;;;13.80;;
21503;SDS011;10913;51.992;9.228;2024-02-21T01:02:43;27.17;;;14.13;;
21503;SDS011;10913;51.992;9.228;2024-02-21T01:05:11;24.27;;;14.32;;
21503;SDS011;10913;51.992;9.228;2024-02-21T01:07:37;24.95;;;14.52;;
21503;SDS011;10913;51.992;9.228;2024-02-21T01:10:08;25.33;;;14.60;;
21503;SDS011;10913;51.992;9.228;2024-02-21T01:12:33;21.95;;;14.40;;
21503;SDS011;10913;51.992;9.228;2024-02-21T01:14:59;24.38;;;13.98;;
21503;SDS011;10913;51.992;9.228;2024-02-21T01:17:25;27.88;;;14.90;;
21503;SDS011;10913;51.992;9.228;2024-02-21T01:19:50;28.02;;;14.60;;
21503;SDS011;10913;51.992;9.228;2024-02-21T01:22:25;29.40;;;15.82;;
21503;SDS011;10913;51.992;9.228;2024-02-21T01:24:53;25.42;;;14.85;;
21503;SDS011;10913;51.992;9.228;2024-02-21T01:27:27;24.05;;;14.65;;
21503;SDS011;10913;51.992;9.228;2024-02-21T01:29:56;28.23;;;15.90;;
21503;SDS011;10913;51.992;9.228;2024-02-21T01:32:24;31.15;;;15.75;;
21503;SDS011;10913;51.992;9.228;2024-02-21T01:34:50;29.00;;;16.30;;
21503;SDS011;10913;51.992;9.228;2024-02-21T01:37:37;27.42;;;16.08;;
21503;SDS011;10913;51.992;9.228;2024-02-21T01:40:03;25.58;;;15.90;;
21503;SDS011;10913;51.992;9.228;2024-02-21T01:42:29;30.27;;;15.13;;
21503;SDS011;10913;51.992;9.228;2024-02-21T01:44:54;30.27;;;15.95;;
21503;SDS011;10913;51.992;9.228;2024-02-21T01:47:19;26.52;;;14.45;;
21503;SDS011;10913;51.992;9.228;2024-02-21T01:49:45;27.10;;;15.00;;
21503;SDS011;10913;51.992;9.228;2024-02-21T01:52:11;25.60;;;15.68;;
21503;SDS011;10913;51.992;9.228;2024-02-21T01:54:47;25.38;;;14.48;;
21503;SDS011;10913;51.992;9.228;2024-02-21T01:57:13;26.42;;;16.33;;
21503;SDS011;10913;51.992;9.228;2024-02-21T01:59:39;26.33;;;16.27;;
21503;SDS011;10913;51.992;9.228;2024-02-21T02:02:05;25.70;;;14.82;;
21503;SDS011;10913;51.992;9.228;2024-02-21T02:04:33;26.95;;;15.80;;
21503;SDS011;10913;51.992;9.228;2024-02-21T02:06:59;24.85;;;14.88;;
21503;SDS011;10913;51.992;9.228;2024-02-21T02:09:29;27.80;;;16.40;;
21503;SDS011;10913;51.992;9.228;2024-02-21T02:11:54;22.92;;;15.02;;
21503;SDS011;10913;51.992;9.228;2024-02-21T02:14:20;27.23;;;15.90;;
21503;SDS011;10913;51.992;9.228;2024-02-21T02:16:48;27.15;;;15.43;;
21503;SDS011;10913;51.992;9.228;2024-02-21T02:19:13;26.13;;;15.18;;
21503;SDS011;10913;51.992;9.228;2024-02-21T02:21:42;25.27;;;15.45;;
21503;SDS011;10913;51.992;9.228;2024-02-21T02:24:11;28.33;;;16.25;;
21503;SDS011;10913;51.992;9.228;2024-02-21T02:26:39;24.63;;;16.13;;
21503;SDS011;10913;51.992;9.228;2024-02-21T02:29:04;28.92;;;17.30;;
21503;SDS011;10913;51.992;9.228;2024-02-21T02:31:42;30.55;;;17.13;;
21503;SDS011;10913;51.992;9.228;2024-02-21T02:34:08;28.13;;;17.05;;
21503;SDS011;10913;51.992;9.228;2024-02-21T02:36:39;28.60;;;16.67;;
21503;SDS011;10913;51.992;9.228;2024-02-21T02:39:11;28.48;;;17.55;;
21503;SDS011;10913;51.992;9.228;2024-02-21T02:41:36;28.60;;;15.93;;
21503;SDS011;10913;51.992;9.228;2024-02-21T02:44:02;24.10;;;15.10;;
21503;SDS011;10913;51.992;9.228;2024-02-21T02:46:30;23.38;;;14.68;;
21503;SDS011;10913;51.992;9.228;2024-02-21T02:48:59;27.52;;;15.88;;
21503;SDS011;10913;51.992;9.228;2024-02-21T02:51:24;27.35;;;14.93;;
21503;SDS011;10913;51.992;9.228;2024-02-21T02:53:55;29.42;;;16.05;;
21503;SDS011;10913;51.992;9.228;2024-02-21T02:56:28;22.08;;;14.20;;
21503;SDS011;10913;51.992;9.228;2024-02-21T02:58:54;22.85;;;13.93;;
21503;SDS011;10913;51.992;9.228;2024-02-21T03:01:19;26.98;;;15.70;;
21503;SDS011;10913;51.992;9.228;2024-02-21T03:03:44;27.05;;;14.70;;
21503;SDS011;10913;51.992;9.228;2024-02-21T03:06:12;26.30;;;14.80;;
21503;SDS011;10913;51.992;9.228;2024-02-21T03:08:37;25.00;;;14.95;;
21503;SDS011;10913;51.992;9.228;2024-02-21T03:11:04;26.30;;;15.50;;
21503;SDS011;10913;51.992;9.228;2024-02-21T03:13:30;24.60;;;14.45;;
21503;SDS011;10913;51.992;9.228;2024-02-21T03:15:55;27.20;;;15.18;;
21503;SDS011;10913;51.992;9.228;2024-02-21T03:18:21;19.75;;;13.38;;
21503;SDS011;10913;51.992;9.228;2024-02-21T03:20:46;24.95;;;14.45;;
21503;SDS011;10913;51.992;9.228;2024-02-21T03:23:12;23.95;;;14.50;;
21503;SDS011;10913;51.992;9.228;2024-02-21T03:25:38;23.02;;;13.93;;
21503;SDS011;10913;51.992;9.228;2024-02-21T03:28:04;25.23;;;14.50;;
21503;SDS011;10913;51.992;9.228;2024-02-21T03:30:35;24.17;;;14.85;;
21503;SDS011;10913;51.992;9.228;2024-02-21T03:33:13;26.17;;;15.13;;
21503;SDS011;10913;51.992;9.228;2024-02-21T03:35:38;21.73;;;13.63;;
21503;SDS011;10913;51.992;9.228;2024-02-21T03:38:06;24.35;;;14.18;;
21503;SDS011;10913;51.992;9.228;2024-02-21T03:40:32;22.20;;;13.55;;
21503;SDS011;10913;51.992;9.228;2024-02-21T03:50:41;24.23;;;14.65;;
21503;SDS011;10913;51.992;9.228;2024-02-21T03:53:07;23.45;;;15.25;;
21503;SDS011;10913;51.992;9.228;2024-02-21T03:55:32;22.50;;;14.15;;
21503;SDS011;10913;51.992;9.228;2024-02-21T03:57:58;20.88;;;13.23;;
21503;SDS011;10913;51.992;9.228;2024-02-21T04:00:26;21.80;;;12.70;;
21503;SDS011;10913;51.992;9.228;2024-02-21T04:02:58;18.55;;;12.93;;
21503;SDS011;10913;51.992;9.228;2024-02-21T04:05:29;18.73;;;12.63;;
21503;SDS011;10913;51.992;9.228;2024-02-21T04:07:55;20.85;;;12.55;;
21503;SDS011;10913;51.992;9.228;2024-02-21T04:18:09;19.73;;;12.82;;
21503;SDS011;10913;51.992;9.228;2024-02-21T04:20:37;20.20;;;12.10;;
21503;SDS011;10913;51.992;9.228;2024-02-21T04:23:18;26.15;;;14.32;;
21503;SDS011;10913;51.992;9.228;2024-02-21T04:25:43;22.30;;;13.05;;
21503;SDS011;10913;51.992;9.228;2024-02-21T04:28:09;23.08;;;12.82;;
21503;SDS011;10913;51.992;9.228;2024-02-21T04:34:35;22.73;;;12.10;;
21503;SDS011;10913;51.992;9.228;2024-02-21T04:37:00;18.40;;;11.40;;
21503;SDS011;10913;51.992;9.228;2024-02-21T04:39:47;21.55;;;12.60;;
21503;SDS011;10913;51.992;9.228;2024-02-21T04:42:16;23.13;;;13.35;;
21503;SDS011;10913;51.992;9.228;2024-02-21T04:44:42;20.88;;;12.88;;
21503;SDS011;10913;51.992;9.228;2024-02-21T04:47:10;24.75;;;13.02;;
21503;SDS011;10913;51.992;9.228;2024-02-21T04:49:35;22.52;;;13.13;;
21503;SDS011;10913;51.992;9.228;2024-02-21T04:52:01;20.30;;;11.43;;
21503;SDS011;10913;51.992;9.228;2024-02-21T04:54:27;21.85;;;11.82;;
21503;SDS011;10913;51.992;9.228;2024-02-21T04:56:55;18.73;;;12.07;;
21503;SDS011;10913;51.992;9.228;2024-02-21T04:59:20;19.00;;;11.63;;
21503;SDS011;10913;51.992;9.228;2024-02-21T05:01:46;20.58;;;11.85;;
21503;SDS011;10913;51.992;9.228;2024-02-21T05:04:11;19.75;;;12.40;;
21503;SDS011;10913;51.992;9.228;2024-02-21T05:06:43;21.25;;;12.52;;
21503;SDS011;10913;51.992;9.228;2024-02-21T05:09:10;22.10;;;12.70;;
21503;SDS011;10913;51.992;9.228;2024-02-21T05:11:39;21.05;;;11.98;;
21503;SDS011;10913;51.992;9.228;2024-02-21T05:14:07;20.33;;;12.40;;
21503;SDS011;10913;51.992;9.228;2024-02-21T05:16:33;21.60;;;12.55;;
21503;SDS011;10913;51.992;9.228;2024-02-21T05:19:00;21.35;;;13.25;;
21503;SDS011;10913;51.992;9.228;2024-02-21T05:21:26;19.48;;;11.82;;
21503;SDS011;10913;51.992;9.228;2024-02-21T05:23:53;21.60;;;12.48;;
21503;SDS011;10913;51.992;9.228;2024-02-21T05:26:25;17.40;;;11.82;;
21503;SDS011;10913;51.992;9.228;2024-02-21T05:28:52;21.25;;;12.52;;
21503;SDS011;10913;51.992;9.228;2024-02-21T05:31:25;20.23;;;13.02;;
21503;SDS011;10913;51.992;9.228;2024-02-21T05:33:53;22.40;;;12.55;;
21503;SDS011;10913;51.992;9.228;2024-02-21T05:36:22;19.70;;;12.23;;
21503;SDS011;10913;51.992;9.228;2024-02-21T05:38:53;20.20;;;12.32;;
21503;SDS011;10913;51.992;9.228;2024-02-21T05:41:19;20.00;;;13.05;;
21503;SDS011;10913;51.992;9.228;2024-02-21T05:43:44;23.17;;;13.20;;
21503;SDS011;10913;51.992;9.228;2024-02-21T05:46:09;21.70;;;12.00;;
21503;SDS011;10913;51.992;9.228;2024-02-21T05:48:35;21.00;;;13.13;;
21503;SDS011;10913;51.992;9.228;2024-02-21T05:51:01;20.45;;;11.93;;
21503;SDS011;10913;51.992;9.228;2024-02-21T05:53:28;25.50;;;13.27;;
21503;SDS011;10913;51.992;9.228;2024-02-21T05:55:54;24.00;;;12.77;;
21503;SDS011;10913;51.992;9.228;2024-02-21T05:58:19;23.83;;;13.25;;
21503;SDS011;10913;51.992;9.228;2024-02-21T06:00:47;21.15;;;12.80;;
21503;SDS011;10913;51.992;9.228;2024-02-21T06:03:19;22.38;;;12.43;;
21503;SDS011;10913;51.992;9.228;2024-02-21T06:05:44;20.70;;;11.93;;
21503;SDS011;10913;51.992;9.228;2024-02-21T06:08:10;18.58;;;11.70;;
21503;SDS011;10913;51.992;9.228;2024-02-21T06:10:35;17.55;;;11.30;;
21503;SDS011;10913;51.992;9.228;2024-02-21T06:13:00;18.58;;;11.80;;
21503;SDS011;10913;51.992;9.228;2024-02-21T06:15:29;17.05;;;11.40;;
21503;SDS011;10913;51.992;9.228;2024-02-21T06:18:02;20.35;;;12.40;;
21503;SDS011;10913;51.992;9.228;2024-02-21T06:20:27;20.55;;;12.32;;
21503;SDS011;10913;51.992;9.228;2024-02-21T06:23:05;22.15;;;11.77;;
21503;SDS011;10913;51.992;9.228;2024-02-21T06:25:31;23.63;;;12.75;;
21503;SDS011;10913;51.992;9.228;2024-02-21T06:27:59;15.95;;;10.27;;
21503;SDS011;10913;51.992;9.228;2024-02-21T06:30:25;22.20;;;12.27;;
21503;SDS011;10913;51.992;9.228;2024-02-21T06:32:53;20.00;;;11.80;;
21503;SDS011;10913;51.992;9.228;2024-02-21T06:35:27;25.30;;;12.77;;
21503;SDS011;10913;51.992;9.228;2024-02-21T06:37:55;21.90;;;12.60;;
21503;SDS011;10913;51.992;9.228;2024-02-21T06:40:21;17.70;;;10.68;;
21503;SDS011;10913;51.992;9.228;2024-02-21T06:43:05;18.20;;;11.18;;
21503;SDS011;10913;51.992;9.228;2024-02-21T06:45:37;21.52;;;12.38;;
21503;SDS011;10913;51.992;9.228;2024-02-21T06:48:04;19.42;;;11.57;;
21503;SDS011;10913;51.992;9.228;2024-02-21T06:50:30;21.83;;;12.45;;
21503;SDS011;10913;51.992;9.228;2024-02-21T06:52:55;19.75;;;12.60;;
21503;SDS011;10913;51.992;9.228;2024-02-21T06:55:22;21.52;;;12.00;;
21503;SDS011;10913;51.992;9.228;2024-02-21T06:57:56;23.05;;;12.90;;
21503;SDS011;10913;51.992;9.228;2024-02-21T07:00:24;17.25;;;11.88;;
21503;SDS011;10913;51.992;9.228;2024-02-21T07:02:59;23.48;;;12.77;;
21503;SDS011;10913;51.992;9.228;2024-02-21T07:05:28;21.60;;;12.57;;
21503;SDS011;10913;51.992;9.228;2024-02-21T07:07:53;22.30;;;13.10;;
21503;SDS011;10913;51.992;9.228;2024-02-21T07:10:24;22.63;;;12.88;;
21503;SDS011;10913;51.992;9.228;2024-02-21T07:12:53;17.92;;;11.63;;
21503;SDS011;10913;51.992;9.228;2024-02-21T07:15:21;22.73;;;11.80;;
21503;SDS011;10913;51.992;9.228;2024-02-21T07:17:53;19.75;;;12.13;;
21503;SDS011;10913;51.992;9.228;2024-02-21T07:20:19;20.02;;;11.70;;
21503;SDS011;10913;51.992;9.228;2024-02-21T07:22:54;17.67;;;10.80;;
21503;SDS011;10913;51.992;9.228;2024-02-21T07:25:27;20.92;;;11.05;;
21503;SDS011;10913;51.992;9.228;2024-02-21T07:27:55;15.48;;;9.38;;
21503;SDS011;10913;51.992;9.228;2024-02-21T07:30:30;13.32;;;8.73;;
21503;SDS011;10913;51.992;9.228;2024-02-21T07:38:15;15.30;;;8.38;;
21503;SDS011;10913;51.992;9.228;2024-02-21T07:54:29;14.45;;;8.77;;
21503;SDS011;10913;51.992;9.228;2024-02-21T07:57:10;14.65;;;8.77;;
21503;SDS011;10913;51.992;9.228;2024-02-21T10:11:01;7.20;;;3.50;;
21503;SDS011;10913;51.992;9.228;2024-02-21T10:13:30;5.78;;;3.20;;
21503;SDS011;10913;51.992;9.228;2024-02-21T10:16:05;8.10;;;3.55;;
21503;SDS011;10913;51.992;9.228;2024-02-21T10:44:23;4.95;;;3.38;;
21503;SDS011;10913;51.992;9.228;2024-02-21T10:46:59;5.55;;;3.50;;
21503;SDS011;10913;51.992;9.228;2024-02-21T10:49:29;6.60;;;3.58;;
21503;SDS011;10913;51.992;9.228;2024-02-21T10:52:12;9.02;;;4.05;;
21503;SDS011;10913;51.992;9.228;2024-02-21T10:57:24;5.82;;;4.43;;
21503;SDS011;10913;51.992;9.228;2024-02-21T11:00:00;5.93;;;4.07;;
21503;SDS011;10913;51.992;9.228;2024-02-21T11:02:28;7.20;;;5.32;;
21503;SDS011;10913;51.992;9.228;2024-02-21T11:04:56;8.25;;;5.60;;
21503;SDS011;10913;51.992;9.228;2024-02-21T11:07:26;10.00;;;6.38;;
21503;SDS011;10913;51.992;9.228;2024-02-21T11:09:52;10.63;;;7.50;;
21503;SDS011;10913;51.992;9.228;2024-02-21T11:12:20;11.13;;;6.80;;
21503;SDS011;10913;51.992;9.228;2024-02-21T11:14:46;13.27;;;7.80;;
21503;SDS011;10913;51.992;9.228;2024-02-21T11:17:15;12.75;;;8.63;;
21503;SDS011;10913;51.992;9.228;2024-02-21T11:19:42;14.52;;;8.63;;
21503;SDS011;10913;51.992;9.228;2024-02-21T11:22:14;10.77;;;7.78;;
21503;SDS011;10913;51.992;9.228;2024-02-21T11:24:43;10.90;;;8.10;;
21503;SDS011;10913;51.992;9.228;2024-02-21T11:27:22;13.40;;;8.05;;
21503;SDS011;10913;51.992;9.228;2024-02-21T11:29:56;11.10;;;7.70;;
21503;SDS011;10913;51.992;9.228;2024-02-21T11:32:24;14.32;;;8.68;;
21503;SDS011;10913;51.992;9.228;2024-02-21T11:34:58;11.25;;;8.27;;
21503;SDS011;10913;51.992;9.228;2024-02-21T11:37:28;11.40;;;7.82;;
21503;SDS011;10913;51.992;9.228;2024-02-21T11:39:55;9.45;;;6.97;;
21503;SDS011;10913;51.992;9.228;2024-02-21T11:42:21;9.95;;;6.82;;
21503;SDS011;10913;51.992;9.228;2024-02-21T11:44:46;9.27;;;6.50;;
21503;SDS011;10913;51.992;9.228;2024-02-21T11:47:15;9.70;;;6.72;;
21503;SDS011;10913;51.992;9.228;2024-02-21T11:49:46;7.57;;;5.97;;
21503;SDS011;10913;51.992;9.228;2024-02-21T11:52:17;11.38;;;6.30;;
21503;SDS011;10913;51.992;9.228;2024-02-21T11:54:43;9.05;;;5.47;;
21503;SDS011;10913;51.992;9.228;2024-02-21T11:57:09;8.23;;;5.97;;
21503;SDS011;10913;51.992;9.228;2024-02-21T11:59:36;9.75;;;5.28;;
21503;SDS011;10913;51.992;9.228;2024-02-21T12:02:02;7.03;;;4.90;;
21503;SDS011;10913;51.992;9.228;2024-02-21T12:04:31;8.45;;;5.38;;
21503;SDS011;10913;51.992;9.228;2024-02-21T12:06:57;7.40;;;4.65;;
21503;SDS011;10913;51.992;9.228;2024-02-21T12:09:23;6.07;;;4.47;;
21503;SDS011;10913;51.992;9.228;2024-02-21T12:12:02;7.28;;;4.03;;
21503;SDS011;10913;51.992;9.228;2024-02-21T12:14:30;9.82;;;4.55;;
21503;SDS011;10913;51.992;9.228;2024-02-21T12:16:56;7.22;;;3.95;;
21503;SDS011;10913;51.992;9.228;2024-02-21T12:19:22;8.43;;;3.85;;
21503;SDS011;10913;51.992;9.228;2024-02-21T12:21:48;6.50;;;3.65;;
21503;SDS011;10913;51.992;9.228;2024-02-21T12:24:25;7.30;;;3.20;;
21503;SDS011;10913;51.992;9.228;2024-02-21T12:26:53;5.82;;;3.25;;
21503;SDS011;10913;51.992;9.228;2024-02-21T12:29:19;5.95;;;3.10;;
21503;SDS011;10913;51.992;9.228;2024-02-21T12:31:45;5.18;;;3.42;;
21503;SDS011;10913;51.992;9.228;2024-02-21T12:34:11;6.78;;;3.45;;
21503;SDS011;10913;51.992;9.228;2024-02-21T12:36:58;7.72;;;3.25;;
21503;SDS011;10913;51.992;9.228;2024-02-21T12:39:32;7.35;;;3.20;;
21503;SDS011;10913;51.992;9.228;2024-02-21T12:41:58;7.78;;;3.42;;
21503;SDS011;10913;51.992;9.228;2024-02-21T12:44:23;6.72;;;3.22;;
21503;SDS011;10913;51.992;9.228;2024-02-21T12:47:01;5.65;;;3.15;;
21503;SDS011;10913;51.992;9.228;2024-02-21T12:49:27;6.50;;;3.38;;
21503;SDS011;10913;51.992;9.228;2024-02-21T12:51:54;6.18;;;2.92;;
21503;SDS011;10913;51.992;9.228;2024-02-21T12:54:20;5.03;;;3.00;;
21503;SDS011;10913;51.992;9.228;2024-02-21T12:56:46;7.28;;;3.15;;
21503;SDS011;10913;51.992;9.228;2024-02-21T12:59:11;5.80;;;2.85;;
21503;SDS011;10913;51.992;9.228;2024-02-21T13:01:43;8.07;;;3.45;;
21503;SDS011;10913;51.992;9.228;2024-02-21T13:04:08;6.72;;;3.05;;
21503;SDS011;10913;51.992;9.228;2024-02-21T13:06:33;7.53;;;3.00;;
21503;SDS011;10913;51.992;9.228;2024-02-21T13:09:00;8.60;;;3.15;;
21503;SDS011;10913;51.992;9.228;2024-02-21T13:11:28;6.18;;;2.97;;
21503;SDS011;10913;51.992;9.228;2024-02-21T13:13:55;6.88;;;3.10;;
21503;SDS011;10913;51.992;9.228;2024-02-21T13:16:21;4.53;;;3.00;;
21503;SDS011;10913;51.992;9.228;2024-02-21T13:18:47;7.32;;;2.67;;
21503;SDS011;10913;51.992;9.228;2024-02-21T13:21:13;5.70;;;2.90;;
21503;SDS011;10913;51.992;9.228;2024-02-21T13:23:39;5.55;;;2.20;;
21503;SDS011;10913;51.992;9.228;2024-02-21T13:26:05;6.50;;;2.53;;
21503;SDS011;10913;51.992;9.228;2024-02-21T13:28:33;8.80;;;2.50;;
21503;SDS011;10913;51.992;9.228;2024-02-21T13:30:59;7.40;;;2.50;;
21503;SDS011;10913;51.992;9.228;2024-02-21T13:33:28;6.90;;;2.75;;
21503;SDS011;10913;51.992;9.228;2024-02-21T13:35:57;4.18;;;2.30;;
21503;SDS011;10913;51.992;9.228;2024-02-21T13:38:22;4.90;;;2.20;;
21503;SDS011;10913;51.992;9.228;2024-02-21T13:40:49;6.15;;;2.67;;
21503;SDS011;10913;51.992;9.228;2024-02-21T13:43:25;5.50;;;2.58;;
21503;SDS011;10913;51.992;9.228;2024-02-21T13:46:00;4.55;;;2.22;;
21503;SDS011;10913;51.992;9.228;2024-02-21T13:48:34;7.18;;;2.78;;
21503;SDS011;10913;51.992;9.228;2024-02-21T13:51:01;5.13;;;2.28;;
21503;SDS011;10913;51.992;9.228;2024-02-21T13:53:27;6.13;;;2.65;;
21503;SDS011;10913;51.992;9.228;2024-02-21T13:55:53;5.63;;;2.35;;
21503;SDS011;10913;51.992;9.228;2024-02-21T13:58:19;7.22;;;3.28;;
21503;SDS011;10913;51.992;9.228;2024-02-21T14:00:47;9.02;;;3.75;;
21503;SDS011;10913;51.992;9.228;2024-02-21T14:03:12;6.85;;;3.53;;
21503;SDS011;10913;51.992;9.228;2024-02-21T14:05:45;8.32;;;3.40;;
21503;SDS011;10913;51.992;9.228;2024-02-21T14:08:13;12.52;;;3.97;;
21503;SDS011;10913;51.992;9.228;2024-02-21T14:10:39;9.98;;;4.28;;
21503;SDS011;10913;51.992;9.228;2024-02-21T14:13:05;10.70;;;4.38;;
21503;SDS011;10913;51.992;9.228;2024-02-21T14:15:36;11.82;;;4.00;;
21503;SDS011;10913;51.992;9.228;2024-02-21T14:18:09;9.55;;;3.67;;
21503;SDS011;10913;51.992;9.228;2024-02-21T14:20:38;10.25;;;3.88;;
21503;SDS011;10913;51.992;9.228;2024-02-21T14:23:04;9.38;;;3.70;;
21503;SDS011;10913;51.992;9.228;2024-02-21T14:25:32;11.15;;;4.20;;
21503;SDS011;10913;51.992;9.228;2024-02-21T14:28:04;7.72;;;3.70;;
21503;SDS011;10913;51.992;9.228;2024-02-21T14:30:31;9.77;;;4.03;;
21503;SDS011;10913;51.992;9.228;2024-02-21T14:32:56;9.68;;;3.70;;
21503;SDS011;10913;51.992;9.228;2024-02-21T14:35:22;9.50;;;4.05;;
21503;SDS011;10913;51.992;9.228;2024-02-21T14:37:53;10.57;;;3.50;;
21503;SDS011;10913;51.992;9.228;2024-02-21T14:40:22;9.07;;;3.72;;
21503;SDS011;10913;51.992;9.228;2024-02-21T14:42:47;11.45;;;4.25;;
21503;SDS011;10913;51.992;9.228;2024-02-21T14:45:13;6.75;;;3.70;;
21503;SDS011;10913;51.992;9.228;2024-02-21T14:47:40;7.93;;;4.10;;
21503;SDS011;10913;51.992;9.228;2024-02-21T14:50:09;7.80;;;4.05;;
21503;SDS011;10913;51.992;9.228;2024-02-21T14:52:34;8.30;;;3.90;;
21503;SDS011;10913;51.992;9.228;2024-02-21T14:55:01;9.02;;;4.13;;
21503;SDS011;10913;51.992;9.228;2024-02-21T14:57:28;8.43;;;4.13;;
21503;SDS011;10913;51.992;9.228;2024-02-21T15:00:07;8.30;;;4.07;;
21503;SDS011;10913;51.992;9.228;2024-02-21T15:02:33;9.40;;;3.78;;
21503;SDS011;10913;51.992;9.228;2024-02-21T15:05:00;9.48;;;3.83;;
21503;SDS011;10913;51.992;9.228;2024-02-21T15:07:26;10.27;;;4.28;;
21503;SDS011;10913;51.992;9.228;2024-02-21T15:09:51;10.13;;;4.28;;
21503;SDS011;10913;51.992;9.228;2024-02-21T15:12:18;12.32;;;4.03;;
21503;SDS011;10913;51.992;9.228;2024-02-21T15:14:44;9.02;;;3.75;;
21503;SDS011;10913;51.992;9.228;2024-02-21T15:17:12;10.45;;;3.83;;
21503;SDS011;10913;51.992;9.228;2024-02-21T15:19:38;13.35;;;4.18;;
21503;SDS011;10913;51.992;9.228;2024-02-21T15:22:07;9.30;;;3.92;;
21503;SDS011;10913;51.992;9.228;2024-02-21T15:24:32;11.55;;;4.28;;
21503;SDS011;10913;51.992;9.228;2024-02-21T15:26:57;10.20;;;3.90;;
21503;SDS011;10913;51.992;9.228;2024-02-21T15:29:23;11.32;;;4.10;;
21503;SDS011;10913;51.992;9.228;2024-02-21T15:31:48;8.50;;;4.20;;
21503;SDS011;10913;51.992;9.228;2024-02-21T15:34:17;10.20;;;5.15;;
21503;SDS011;10913;51.992;9.228;2024-02-21T15:36:43;10.00;;;4.05;;
21503;SDS011;10913;51.992;9.228;2024-02-21T15:39:08;9.60;;;4.13;;
21503;SDS011;10913;51.992;9.228;2024-02-21T15:41:35;7.88;;;3.85;;
21503;SDS011;10913;51.992;9.228;2024-02-21T15:44:06;9.82;;;3.92;;
21503;SDS011;10913;51.992;9.228;2024-02-21T15:46:32;10.77;;;4.72;;
21503;SDS011;10913;51.992;9.228;2024-02-21T15:49:01;10.20;;;3.88;;
21503;SDS011;10913;51.992;9.228;2024-02-21T15:51:26;10.43;;;4.35;;
21503;SDS011;10913;51.992;9.228;2024-02-21T15:53:52;7.80;;;3.85;;
21503;SDS011;10913;51.992;9.228;2024-02-21T15:56:17;8.90;;;4.38;;
21503;SDS011;10913;51.992;9.228;2024-02-21T15:58:43;10.00;;;4.10;;
21503;SDS011;10913;51.992;9.228;2024-02-21T16:01:08;10.05;;;4.35;;
21503;SDS011;10913;51.992;9.228;2024-02-21T16:03:36;10.55;;;4.30;;
21503;SDS011;10913;51.992;9.228;2024-02-21T16:06:02;12.35;;;4.38;;
21503;SDS011;10913;51.992;9.228;2024-02-21T16:08:40;10.98;;;3.92;;
21503;SDS011;10913;51.992;9.228;2024-02-21T16:11:13;10.05;;;3.75;;
21503;SDS011;10913;51.992;9.228;2024-02-21T16:13:42;10.85;;;3.42;;
21503;SDS011;10913;51.992;9.228;2024-02-21T16:16:10;7.30;;;3.47;;
21503;SDS011;10913;51.992;9.228;2024-02-21T16:18:36;8.82;;;3.45;;
21503;SDS011;10913;51.992;9.228;2024-02-21T16:21:01;9.57;;;3.75;;
21503;SDS011;10913;51.992;9.228;2024-02-21T16:23:27;9.68;;;4.13;;
21503;SDS011;10913;51.992;9.228;2024-02-21T16:25:52;10.98;;;3.67;;
21503;SDS011;10913;51.992;9.228;2024-02-21T16:28:18;7.82;;;4.03;;
21503;SDS011;10913;51.992;9.228;2024-02-21T16:30:43;8.40;;;3.88;;
21503;SDS011;10913;51.992;9.228;2024-02-21T16:33:09;8.18;;;3.72;;
21503;SDS011;10913;51.992;9.228;2024-02-21T16:35:43;8.10;;;3.35;;
21503;SDS011;10913;51.992;9.228;2024-02-21T16:38:13;8.73;;;3.85;;
21503;SDS011;10913;51.992;9.228;2024-02-21T16:40:38;9.57;;;3.90;;
21503;SDS011;10913;51.992;9.228;2024-02-21T16:43:05;8.43;;;3.65;;
21503;SDS011;10913;51.992;9.228;2024-02-21T16:45:31;7.07;;;3.92;;
21503;SDS011;10913;51.992;9.228;2024-02-21T16:48:00;9.38;;;3.80;;
21503;SDS011;10913;51.992;9.228;2024-02-21T16:50:25;10.40;;;3.63;;
21503;SDS011;10913;51.992;9.228;2024-02-21T16:52:51;11.00;;;4.18;;
21503;SDS011;10913;51.992;9.228;2024-02-21T16:55:17;7.38;;;3.78;;
21503;SDS011;10913;51.992;9.228;2024-02-21T16:57:43;9.10;;;3.50;;
21503;SDS011;10913;51.992;9.228;2024-02-21T17:00:08;10.18;;;3.85;;
21503;SDS011;10913;51.992;9.228;2024-02-21T17:02:38;7.63;;;3.58;;
21503;SDS011;10913;51.992;9.228;2024-02-21T17:05:05;11.18;;;4.35;;
21503;SDS011;10913;51.992;9.228;2024-02-21T17:07:31;8.95;;;3.70;;
21503;SDS011;10913;51.992;9.228;2024-02-21T17:09:58;9.02;;;3.83;;
21503;SDS011;10913;51.992;9.228;2024-02-21T17:12:26;8.40;;;3.60;;
21503;SDS011;10913;51.992;9.228;2024-02-21T17:14:56;9.65;;;3.92;;
21503;SDS011;10913;51.992;9.228;2024-02-21T17:17:22;8.82;;;3.80;;
21503;SDS011;10913;51.992;9.228;2024-02-21T17:19:48;8.80;;;3.90;;
21503;SDS011;10913;51.992;9.228;2024-02-21T17:22:13;9.32;;;4.03;;
21503;SDS011;10913;51.992;9.228;2024-02-21T17:24:39;9.90;;;4.47;;
21503;SDS011;10913;51.992;9.228;2024-02-21T17:27:05;7.72;;;3.90;;
21503;SDS011;10913;51.992;9.228;2024-02-21T17:29:30;11.73;;;4.18;;
21503;SDS011;10913;51.992;9.228;2024-02-21T17:31:56;7.13;;;3.45;;
21503;SDS011;10913;51.992;9.228;2024-02-21T17:34:22;8.52;;;3.92;;
21503;SDS011;10913;51.992;9.228;2024-02-21T17:36:47;9.15;;;4.15;;
21503;SDS011;10913;51.992;9.228;2024-02-21T17:39:13;13.32;;;4.80;;
21503;SDS011;10913;51.992;9.228;2024-02-21T17:41:40;9.48;;;4.85;;
21503;SDS011;10913;51.992;9.228;2024-02-21T17:44:08;9.13;;;4.45;;
21503;SDS011;10913;51.992;9.228;2024-02-21T17:46:40;12.25;;;4.45;;
21503;SDS011;10913;51.992;9.228;2024-02-21T17:49:12;10.60;;;4.70;;
21503;SDS011;10913;51.992;9.228;2024-02-21T17:51:55;9.07;;;4.90;;
21503;SDS011;10913;51.992;9.228;2024-02-21T17:54:22;10.27;;;5.03;;
21503;SDS011;10913;51.992;9.228;2024-02-21T17:56:47;11.73;;;5.90;;